createdAt,value
2022-12-29T00:01:18.161Z,99967.13
2022-12-29T00:04:20.591Z,99968.16
2022-12-29T00:07:23.066Z,99959.13
2022-12-29T00:10:25.410Z,99968.78
2022-12-29T00:13:46.579Z,99959.16
2022-12-29T00:16:48.989Z,99959.00
2022-12-29T00:20:10.176Z,99961.81
2022-12-29T00:23:31.474Z,99953.72
2022-12-29T00:26:53.759Z,99957.16
2022-12-29T00:30:14.943Z,99953.31
2022-12-29T00:33:40.583Z,99950.81
2022-12-29T00:36:43.722Z,99949.03
2022-12-29T00:40:04.801Z,99955.72
2022-12-29T00:43:26.282Z,99947.41
2022-12-29T00:46:28.698Z,99953.69
2022-12-29T00:49:31.606Z,99936.06
2022-12-29T00:52:34.028Z,99930.69
2022-12-29T00:55:41.458Z,99934.91
2022-12-29T00:58:43.799Z,99925.19
2022-12-29T01:01:47.000Z,99913.28
2022-12-29T01:04:49.558Z,99924.66
2022-12-29T01:07:52.376Z,99922.91
2022-12-29T01:11:09.913Z,99926.66
2022-12-29T01:14:12.465Z,99922.50
2022-12-29T01:17:14.873Z,99931.06
2022-12-29T01:20:17.433Z,99926.34
2022-12-29T01:23:20.604Z,99915.72
2022-12-29T01:26:23.014Z,99911.69
2022-12-29T01:29:27.921Z,99917.19
2022-12-29T01:32:30.546Z,99920.66
2022-12-29T01:35:34.911Z,99920.22
2022-12-29T01:38:38.410Z,99919.44
2022-12-29T01:41:40.810Z,99925.03
2022-12-29T01:44:56.613Z,99909.31
2022-12-29T01:48:03.980Z,99892.22
2022-12-29T01:51:06.263Z,99898.72
2022-12-29T01:54:19.292Z,99897.91
2022-12-29T01:57:24.449Z,99894.41
2022-12-29T02:00:26.786Z,99902.47
2022-12-29T02:03:31.843Z,99913.59
2022-12-29T02:06:41.633Z,99889.28
2022-12-29T02:09:44.325Z,99900.50
2022-12-29T02:12:47.181Z,99899.06
2022-12-29T02:16:16.594Z,99889.47
2022-12-29T02:19:21.624Z,99899.00
2022-12-29T02:22:26.652Z,99907.44
2022-12-29T02:25:59.833Z,99906.47
2022-12-29T02:29:11.322Z,99892.81
2022-12-29T02:32:23.096Z,99887.13
2022-12-29T02:35:33.156Z,99874.44
2022-12-29T02:38:36.445Z,99859.59
2022-12-29T02:41:47.034Z,99860.34
2022-12-29T02:45:07.625Z,99860.81
2022-12-29T02:48:22.550Z,99866.78
2022-12-29T02:51:47.659Z,99849.31
2022-12-29T02:54:50.937Z,99869.22
2022-12-29T02:58:16.330Z,99858.22
2022-12-29T03:01:33.994Z,99855.16
2022-12-29T03:04:41.435Z,99845.25
2022-12-29T03:07:58.639Z,99836.44
2022-12-29T03:11:04.591Z,99832.66
2022-12-29T03:14:51.543Z,99827.53
2022-12-29T03:18:07.246Z,99841.78
2022-12-29T03:21:48.829Z,99830.47
2022-12-29T03:24:56.610Z,99819.88
2022-12-29T03:28:03.076Z,99827.75
2022-12-29T03:31:14.410Z,99824.78
2022-12-29T03:34:18.567Z,99830.31
2022-12-29T03:37:22.657Z,99818.94
2022-12-29T03:40:25.513Z,99808.34
2022-12-29T03:43:28.552Z,99808.34
2022-12-29T03:46:31.048Z,99809.75
2022-12-29T03:49:33.975Z,99820.25
2022-12-29T03:52:39.182Z,99804.41
2022-12-29T03:55:42.582Z,99805.06
2022-12-29T03:58:45.760Z,99792.13
2022-12-29T04:01:53.495Z,99796.94
2022-12-29T04:04:55.928Z,99798.59
2022-12-29T04:07:59.348Z,99790.63
2022-12-29T04:11:01.744Z,99786.06
2022-12-29T04:14:04.174Z,99750.50
2022-12-29T04:17:08.628Z,99772.66
2022-12-29T04:20:29.787Z,99768.81
2022-12-29T04:23:36.933Z,99768.03
2022-12-29T04:26:42.961Z,99763.78
2022-12-29T04:30:01.694Z,99760.34
2022-12-29T04:33:15.789Z,99749.31
2022-12-29T04:36:18.984Z,99779.00
2022-12-29T04:39:21.800Z,99773.03
2022-12-29T04:42:24.200Z,99764.00
2022-12-29T04:45:28.116Z,99757.63
2022-12-29T04:48:44.713Z,99754.13
2022-12-29T04:52:02.048Z,99740.38
2022-12-29T04:55:05.554Z,99753.81
2022-12-29T04:58:08.010Z,99755.69
2022-12-29T05:01:10.551Z,99745.44
2022-12-29T05:04:13.091Z,99749.53
2022-12-29T05:07:17.759Z,99750.38
2022-12-29T05:10:21.417Z,99754.19
2022-12-29T05:13:27.435Z,99759.06
2022-12-29T05:16:29.778Z,99751.22
2022-12-29T05:19:33.577Z,99750.44
2022-12-29T05:22:36.127Z,99745.38
2022-12-29T05:25:40.005Z,99730.88
2022-12-29T05:29:05.143Z,99748.44
2022-12-29T05:32:08.496Z,99731.31
2022-12-29T05:35:11.139Z,99726.81
2022-12-29T05:38:14.109Z,99737.06
2022-12-29T05:41:18.000Z,99735.53
2022-12-29T05:44:35.735Z,99734.53
2022-12-29T05:47:58.364Z,99736.13
2022-12-29T05:51:20.850Z,99731.38
2022-12-29T05:54:24.927Z,99731.16
2022-12-29T05:57:27.989Z,99714.00
2022-12-29T06:00:39.493Z,99706.53
2022-12-29T06:03:47.967Z,99710.69
2022-12-29T06:06:51.032Z,99696.19
2022-12-29T06:10:05.560Z,99701.94
2022-12-29T06:13:12.986Z,99691.97
2022-12-29T06:16:18.778Z,99683.03
2022-12-29T06:19:21.445Z,99676.31
2022-12-29T06:22:23.987Z,99673.56
2022-12-29T06:25:26.315Z,99674.13
2022-12-29T06:28:28.673Z,99666.31
2022-12-29T06:31:31.239Z,99670.97
2022-12-29T06:34:33.790Z,99671.97
2022-12-29T06:37:37.073Z,99673.09
2022-12-29T06:40:39.457Z,99685.69
2022-12-29T06:43:58.467Z,99691.28
2022-12-29T06:47:12.952Z,99689.22
2022-12-29T06:50:15.375Z,99684.63
2022-12-29T06:53:17.761Z,99696.03
2022-12-29T06:56:20.062Z,99684.69
2022-12-29T06:59:22.444Z,99685.19
2022-12-29T07:02:28.790Z,99667.09
2022-12-29T07:05:33.658Z,99657.34
2022-12-29T07:08:36.073Z,99663.28
2022-12-29T07:11:38.499Z,99668.69
2022-12-29T07:14:43.170Z,99669.22
2022-12-29T07:17:46.144Z,99657.00
2022-12-29T07:20:48.947Z,99675.50
2022-12-29T07:23:51.260Z,99688.53
2022-12-29T07:26:54.096Z,99711.16
2022-12-29T07:29:56.416Z,99708.22
2022-12-29T07:32:58.803Z,99706.94
2022-12-29T07:36:01.333Z,99703.97
2022-12-29T07:39:04.435Z,99697.50
2022-12-29T07:42:06.807Z,99691.34
2022-12-29T07:45:20.771Z,99704.53
2022-12-29T07:48:42.042Z,99702.16
2022-12-29T07:51:44.511Z,99693.22
2022-12-29T07:54:46.842Z,99691.53
2022-12-29T07:57:49.219Z,99704.34
2022-12-29T08:00:57.775Z,99694.56
2022-12-29T08:04:00.253Z,99698.63
2022-12-29T08:07:02.685Z,99697.00
2022-12-29T08:10:05.725Z,99700.25
2022-12-29T08:13:08.127Z,99699.47
2022-12-29T08:16:10.586Z,99700.59
2022-12-29T08:19:13.595Z,99697.09
2022-12-29T08:22:16.619Z,99703.81
2022-12-29T08:25:20.652Z,99685.69
2022-12-29T08:28:23.056Z,99690.28
2022-12-29T08:31:26.117Z,99665.31
2022-12-29T08:34:28.949Z,99688.97
2022-12-29T08:37:31.612Z,99694.41
2022-12-29T08:40:33.954Z,99707.72
2022-12-29T08:43:36.304Z,99684.44
2022-12-29T08:46:38.757Z,99689.28
2022-12-29T08:49:41.238Z,99709.63
2022-12-29T08:52:43.652Z,99702.06
2022-12-29T08:56:00.668Z,99698.81
2022-12-29T08:59:07.941Z,99694.75
2022-12-29T09:02:15.426Z,99695.28
2022-12-29T09:05:20.014Z,99710.22
2022-12-29T09:08:26.115Z,99710.78
2022-12-29T09:11:28.756Z,99707.22
2022-12-29T09:14:31.088Z,99701.00
2022-12-29T09:17:45.642Z,99678.22
2022-12-29T09:20:48.001Z,99684.22
2022-12-29T09:23:50.441Z,99680.19
2022-12-29T09:26:52.736Z,99676.09
2022-12-29T09:29:55.096Z,99686.94
2022-12-29T09:32:57.443Z,99671.47
2022-12-29T09:36:00.609Z,99669.06
2022-12-29T09:39:02.963Z,99673.91
2022-12-29T09:42:08.141Z,99666.59
2022-12-29T09:45:20.444Z,99676.09
2022-12-29T09:48:29.479Z,99664.91
2022-12-29T09:51:33.730Z,99677.16
2022-12-29T09:54:51.525Z,99673.91
2022-12-29T09:58:18.102Z,99678.56
2022-12-29T10:01:23.661Z,99667.13
2022-12-29T10:04:30.165Z,99666.81
2022-12-29T10:07:45.981Z,99666.78
2022-12-29T10:11:25.536Z,99655.34
2022-12-29T10:14:31.017Z,99652.97
2022-12-29T10:18:24.190Z,99660.59
2022-12-29T10:21:42.617Z,99664.97
2022-12-29T10:24:46.716Z,99659.25
2022-12-29T10:27:50.502Z,99655.47
2022-12-29T10:30:55.900Z,99648.94
2022-12-29T10:34:02.850Z,99659.75
2022-12-29T10:37:14.435Z,99651.09
2022-12-29T10:40:40.396Z,99655.72
2022-12-29T10:43:49.281Z,99646.78
2022-12-29T10:47:01.907Z,99656.53
2022-12-29T10:50:05.318Z,99644.06
2022-12-29T10:53:08.699Z,99633.19
2022-12-29T10:56:23.842Z,99624.72
2022-12-29T10:59:31.236Z,99623.16
2022-12-29T11:02:51.279Z,99611.94
2022-12-29T11:05:59.690Z,99612.50
2022-12-29T11:09:15.608Z,99616.81
2022-12-29T11:12:29.926Z,99607.81
2022-12-29T11:15:47.510Z,99605.44
2022-12-29T11:18:50.231Z,99627.41
2022-12-29T11:21:53.317Z,99617.59
2022-12-29T11:24:56.642Z,99603.78
2022-12-29T11:28:18.502Z,99601.38
2022-12-29T11:31:23.583Z,99604.59
2022-12-29T11:34:36.663Z,99601.84
2022-12-29T11:37:41.299Z,99609.66
2022-12-29T11:40:43.765Z,99611.22
2022-12-29T11:43:49.310Z,99618.84
2022-12-29T11:46:53.015Z,99606.31
2022-12-29T11:49:59.079Z,99596.03
2022-12-29T11:53:26.747Z,99604.78
2022-12-29T11:56:42.354Z,99593.97
2022-12-29T11:59:51.691Z,99589.00
2022-12-29T12:03:00.884Z,99595.34
2022-12-29T12:06:04.164Z,99589.94
2022-12-29T12:09:18.390Z,99574.09
2022-12-29T12:12:43.386Z,99579.63
2022-12-29T12:15:55.976Z,99584.72
2022-12-29T12:19:15.234Z,99580.34
2022-12-29T12:22:35.963Z,99577.34
2022-12-29T12:25:46.973Z,99575.47
2022-12-29T12:29:00.554Z,99572.94
2022-12-29T12:32:31.829Z,99577.81
2022-12-29T12:35:48.998Z,99575.03
2022-12-29T12:39:10.915Z,99569.31
2022-12-29T12:42:31.781Z,99568.97
2022-12-29T12:45:37.671Z,99574.13
2022-12-29T12:48:58.534Z,99569.38
2022-12-29T12:52:05.398Z,99570.09
2022-12-29T12:55:20.058Z,99576.25
2022-12-29T12:58:26.367Z,99578.63
2022-12-29T13:01:38.098Z,99552.00
2022-12-29T13:04:44.719Z,99575.22
2022-12-29T13:07:52.944Z,99587.72
2022-12-29T13:11:20.473Z,99571.91
2022-12-29T13:14:43.901Z,99581.03
2022-12-29T13:17:57.846Z,99583.03
2022-12-29T13:21:34.762Z,99585.94
2022-12-29T13:24:42.975Z,99582.31
2022-12-29T13:27:51.066Z,99585.56
2022-12-29T13:31:01.957Z,99581.81
2022-12-29T13:34:17.125Z,99582.22
2022-12-29T13:37:22.457Z,99577.78
2022-12-29T13:40:29.140Z,99567.69
2022-12-29T13:43:33.474Z,99582.44
2022-12-29T13:46:45.232Z,99587.38
2022-12-29T13:49:48.840Z,99586.50
2022-12-29T13:53:33.197Z,99584.59
2022-12-29T13:56:44.702Z,99591.66
2022-12-29T13:59:49.895Z,99590.25
2022-12-29T14:03:14.600Z,99597.28
2022-12-29T14:06:17.455Z,99594.84
2022-12-29T14:09:43.719Z,99589.34
2022-12-29T14:12:46.457Z,99587.78
2022-12-29T14:15:59.944Z,99585.94
2022-12-29T14:19:10.882Z,99587.56
2022-12-29T14:22:13.772Z,99590.28
2022-12-29T14:25:57.895Z,99599.59
2022-12-29T14:29:30.827Z,99608.09
2022-12-29T14:32:33.170Z,99604.03
2022-12-29T14:35:44.196Z,99594.38
2022-12-29T14:38:47.334Z,99607.47
2022-12-29T14:41:49.650Z,99612.56
2022-12-29T14:45:18.061Z,99611.50
2022-12-29T14:48:45.860Z,99606.13
2022-12-29T14:51:49.456Z,99609.66
2022-12-29T14:55:01.496Z,99605.03
2022-12-29T14:58:13.575Z,99599.13
2022-12-29T15:01:22.925Z,99595.84
2022-12-29T15:04:36.306Z,99604.22
2022-12-29T15:07:39.115Z,99601.53
2022-12-29T15:10:47.544Z,99608.31
2022-12-29T15:13:50.653Z,99610.00
2022-12-29T15:16:53.095Z,99605.63
2022-12-29T15:19:57.039Z,99606.44
2022-12-29T15:23:02.844Z,99601.03
2022-12-29T15:26:09.614Z,99599.69
2022-12-29T15:29:38.141Z,99608.63
2022-12-29T15:32:44.398Z,99595.34
2022-12-29T15:35:52.607Z,99603.69
2022-12-29T15:38:55.241Z,99601.50
2022-12-29T15:42:01.855Z,99606.31
2022-12-29T15:45:11.361Z,99598.94
2022-12-29T15:48:22.667Z,99597.25
2022-12-29T15:51:30.429Z,99586.16
2022-12-29T15:54:33.456Z,99588.53
2022-12-29T15:57:43.095Z,99590.16
2022-12-29T16:00:50.450Z,99590.75
2022-12-29T16:03:53.884Z,99595.56
2022-12-29T16:07:01.930Z,99590.16
2022-12-29T16:10:05.049Z,99587.97
2022-12-29T16:13:15.303Z,99583.66
2022-12-29T16:16:23.091Z,99591.78
2022-12-29T16:19:33.694Z,99578.56
2022-12-29T16:22:40.203Z,99579.78
2022-12-29T16:25:42.721Z,99584.44
2022-12-29T16:28:45.897Z,99582.75
2022-12-29T16:32:01.713Z,99594.31
2022-12-29T16:35:24.967Z,99588.09
2022-12-29T16:38:33.680Z,99593.75
2022-12-29T16:41:36.012Z,99610.53
2022-12-29T16:44:38.346Z,99601.91
2022-12-29T16:47:40.732Z,99604.91
2022-12-29T16:50:44.326Z,99609.66
2022-12-29T16:53:54.365Z,99607.81
2022-12-29T16:56:57.187Z,99607.34
2022-12-29T17:00:03.670Z,99604.28
2022-12-29T17:03:06.028Z,99609.25
2022-12-29T17:06:16.349Z,99617.06
2022-12-29T17:09:25.748Z,99622.69
2022-12-29T17:12:30.721Z,99618.19
2022-12-29T17:15:33.378Z,99610.53
2022-12-29T17:18:36.082Z,99608.66
2022-12-29T17:21:38.424Z,99609.97
2022-12-29T17:24:40.950Z,99618.63
2022-12-29T17:27:47.241Z,99628.69
2022-12-29T17:30:50.241Z,99634.97
2022-12-29T17:33:55.117Z,99637.69
2022-12-29T17:36:57.564Z,99651.88
2022-12-29T17:39:59.915Z,99646.38
2022-12-29T17:43:02.242Z,99657.75
2022-12-29T17:46:07.140Z,99662.03
2022-12-29T17:49:17.502Z,99661.88
2022-12-29T17:52:20.672Z,99662.72
2022-12-29T17:55:24.979Z,99667.91
2022-12-29T17:58:28.215Z,99663.59
2022-12-29T18:01:36.167Z,99654.66
2022-12-29T18:04:40.682Z,99660.09
2022-12-29T18:07:43.271Z,99669.56
2022-12-29T18:10:45.787Z,99667.09
2022-12-29T18:13:48.193Z,99679.34
2022-12-29T18:16:50.560Z,99689.66
2022-12-29T18:19:55.797Z,99690.53
2022-12-29T18:23:01.476Z,99698.00
2022-12-29T18:26:07.151Z,99695.56
2022-12-29T18:29:09.553Z,99695.72
2022-12-29T18:32:16.087Z,99694.03
2022-12-29T18:35:27.601Z,99691.13
2022-12-29T18:38:30.938Z,99701.47
2022-12-29T18:41:33.647Z,99684.09
2022-12-29T18:44:36.107Z,99685.91
2022-12-29T18:47:38.425Z,99684.22
2022-12-29T18:50:41.243Z,99682.63
2022-12-29T18:53:43.857Z,99684.25
2022-12-29T18:56:46.227Z,99686.22
2022-12-29T18:59:48.678Z,99682.41
2022-12-29T19:02:52.994Z,99675.38
2022-12-29T19:05:55.613Z,99666.72
2022-12-29T19:08:58.175Z,99684.09
2022-12-29T19:12:00.988Z,99685.72
2022-12-29T19:15:07.449Z,99690.63
2022-12-29T19:21:33.402Z,99686.88
2022-12-29T19:24:35.735Z,99687.09
2022-12-29T19:27:38.174Z,99690.44
2022-12-29T19:30:40.903Z,99684.19
2022-12-29T19:33:43.340Z,99692.03
2022-12-29T19:36:46.173Z,99695.84
2022-12-29T19:39:50.108Z,99708.59
2022-12-29T19:42:53.122Z,99707.81
2022-12-29T19:45:55.430Z,99721.34
2022-12-29T19:48:59.169Z,99715.63
2022-12-29T19:52:01.599Z,99725.66
2022-12-29T19:55:04.140Z,99728.13
2022-12-29T19:58:06.515Z,99730.50
2022-12-29T20:01:17.601Z,99729.91
2022-12-29T20:04:20.056Z,99729.41
2022-12-29T20:07:23.145Z,99726.38
2022-12-29T20:10:25.930Z,99724.59
2022-12-29T20:13:28.431Z,99719.97
2022-12-29T20:16:30.867Z,99711.25
2022-12-29T20:19:36.909Z,99712.94
2022-12-29T20:22:39.298Z,99712.91
2022-12-29T20:25:45.624Z,99727.00
2022-12-29T20:28:49.337Z,99722.63
2022-12-29T20:31:52.918Z,99732.06
2022-12-29T20:34:56.294Z,99724.16
2022-12-29T20:37:58.935Z,99727.44
2022-12-29T20:41:01.416Z,99723.13
2022-12-29T20:44:05.488Z,99728.16
2022-12-29T20:47:08.429Z,99730.81
2022-12-29T20:50:10.922Z,99729.72
2022-12-29T20:53:13.445Z,99731.56
2022-12-29T20:56:18.410Z,99735.38
2022-12-29T20:59:29.032Z,99735.38
2022-12-29T21:02:31.776Z,99730.78
2022-12-29T21:05:37.286Z,99732.19
2022-12-29T21:08:40.436Z,99721.88
2022-12-29T21:11:42.799Z,99731.88
2022-12-29T21:14:45.931Z,99737.84
2022-12-29T21:17:48.672Z,99731.63
2022-12-29T21:20:57.749Z,99736.28
2022-12-29T21:24:05.678Z,99729.75
2022-12-29T21:27:08.237Z,99730.56
2022-12-29T21:30:11.311Z,99731.44
2022-12-29T21:33:13.628Z,99722.75
2022-12-29T21:36:15.960Z,99734.41
2022-12-29T21:39:18.295Z,99729.50
2022-12-29T21:42:20.869Z,99733.59
2022-12-29T21:45:26.285Z,99740.91
2022-12-29T21:48:30.233Z,99747.13
2022-12-29T21:51:50.575Z,99748.75
2022-12-29T21:55:02.128Z,99754.19
2022-12-29T21:58:33.947Z,99750.91
2022-12-29T22:01:56.965Z,99744.97
2022-12-29T22:05:18.389Z,99758.78
2022-12-29T22:08:39.700Z,99762.25
2022-12-29T22:12:01.004Z,99765.50
2022-12-29T22:15:03.959Z,99760.63
2022-12-29T22:18:06.583Z,99761.22
2022-12-29T22:21:10.912Z,99765.84
2022-12-29T22:24:13.333Z,99763.41
2022-12-29T22:27:15.744Z,99768.28
2022-12-29T22:30:18.452Z,99759.34
2022-12-29T22:33:20.765Z,99767.44
2022-12-29T22:36:23.851Z,99760.16
2022-12-29T22:39:26.275Z,99764.75
2022-12-29T22:42:28.578Z,99770.75
2022-12-29T22:45:30.916Z,99777.22
2022-12-29T22:48:33.768Z,99776.44
2022-12-29T22:51:36.043Z,99775.63
2022-12-29T22:54:38.437Z,99774.28
2022-12-29T22:57:40.926Z,99771.00
2022-12-29T23:00:43.337Z,99766.69
2022-12-29T23:03:45.876Z,99776.16
2022-12-29T23:06:48.245Z,99785.69
2022-12-29T23:09:50.643Z,99789.97
2022-12-29T23:12:53.105Z,99791.63
2022-12-29T23:15:55.566Z,99798.13
2022-12-29T23:18:58.185Z,99794.31
2022-12-29T23:22:00.568Z,99792.69
2022-12-29T23:25:02.886Z,99782.41
2022-12-29T23:28:06.659Z,99791.09
2022-12-29T23:31:09.907Z,99794.59
2022-12-29T23:34:13.872Z,99795.16
2022-12-29T23:37:16.238Z,99786.19
2022-12-29T23:40:18.886Z,99782.94
2022-12-29T23:43:21.319Z,99786.75
2022-12-29T23:46:29.520Z,99806.25
2022-12-29T23:49:32.227Z,99802.44
2022-12-29T23:52:34.569Z,99807.06
2022-12-29T23:55:38.253Z,99807.06
2022-12-29T23:58:40.787Z,99798.66
